sensor_id;sensor_type;location;lat;lon;timestamp;temperature;humidity
52495;DHT22;38405;53.212;5.660;2024-01-30T00:01:42;4.70;99.90
52495;DHT22;38405;53.212;5.660;2024-01-30T00:04:08;4.50;99.90
52495;DHT22;38405;53.212;5.660;2024-01-30T00:06:34;4.50;99.90
52495;DHT22;38405;53.212;5.660;2024-01-30T00:08:59;4.50;99.90
52495;DHT22;38405;53.212;5.660;2024-01-30T00:11:25;4.30;99.90
52495;DHT22;38405;53.212;5.660;2024-01-30T00:13:51;4.40;99.90
52495;DHT22;38405;53.212;5.660;2024-01-30T00:16:21;4.30;99.90
52495;DHT22;38405;53.212;5.660;2024-01-30T00:18:47;4.30;99.90
52495;DHT22;38405;53.212;5.660;2024-01-30T00:21:13;4.30;99.90
52495;DHT22;38405;53.212;5.660;2024-01-30T00:23:39;4.40;99.90
52495;DHT22;38405;53.212;5.660;2024-01-30T00:26:04;4.40;99.90
52495;DHT22;38405;53.212;5.660;2024-01-30T00:28:30;4.40;99.90
52495;DHT22;38405;53.212;5.660;2024-01-30T00:30:56;4.40;99.90
52495;DHT22;38405;53.212;5.660;2024-01-30T00:33:22;4.30;99.90
52495;DHT22;38405;53.212;5.660;2024-01-30T00:35:47;4.30;99.90
52495;DHT22;38405;53.212;5.660;2024-01-30T00:38:13;4.30;99.90
52495;DHT22;38405;53.212;5.660;2024-01-30T00:40:39;4.10;99.90
52495;DHT22;38405;53.212;5.660;2024-01-30T00:43:04;4.50;99.90
52495;DHT22;38405;53.212;5.660;2024-01-30T00:45:30;4.20;99.90
52495;DHT22;38405;53.212;5.660;2024-01-30T00:47:55;4.10;99.90
52495;DHT22;38405;53.212;5.660;2024-01-30T00:50:21;3.90;99.90
52495;DHT22;38405;53.212;5.660;2024-01-30T00:52:47;4.20;99.90
52495;DHT22;38405;53.212;5.660;2024-01-30T00:55:12;4.10;99.90
52495;DHT22;38405;53.212;5.660;2024-01-30T00:57:40;4.10;99.90
52495;DHT22;38405;53.212;5.660;2024-01-30T01:00:06;3.90;99.90
52495;DHT22;38405;53.212;5.660;2024-01-30T01:02:37;4.00;99.90
52495;DHT22;38405;53.212;5.660;2024-01-30T01:05:03;3.90;99.90
52495;DHT22;38405;53.212;5.660;2024-01-30T01:07:29;3.60;99.90
52495;DHT22;38405;53.212;5.660;2024-01-30T01:09:54;3.60;99.90
52495;DHT22;38405;53.212;5.660;2024-01-30T01:12:20;4.10;99.90
52495;DHT22;38405;53.212;5.660;2024-01-30T01:14:45;3.70;99.90
52495;DHT22;38405;53.212;5.660;2024-01-30T01:17:12;3.90;99.90
52495;DHT22;38405;53.212;5.660;2024-01-30T01:19:37;4.00;99.90
52495;DHT22;38405;53.212;5.660;2024-01-30T01:22:03;3.90;99.90
52495;DHT22;38405;53.212;5.660;2024-01-30T01:24:31;4.10;99.90
52495;DHT22;38405;53.212;5.660;2024-01-30T01:26:58;4.10;99.90
52495;DHT22;38405;53.212;5.660;2024-01-30T01:29:24;4.00;99.90
52495;DHT22;38405;53.212;5.660;2024-01-30T01:31:54;4.00;99.90
52495;DHT22;38405;53.212;5.660;2024-01-30T01:34:21;4.30;99.90
52495;DHT22;38405;53.212;5.660;2024-01-30T01:36:47;4.50;99.90
52495;DHT22;38405;53.212;5.660;2024-01-30T01:39:12;4.60;99.90
52495;DHT22;38405;53.212;5.660;2024-01-30T01:41:38;4.70;99.90
52495;DHT22;38405;53.212;5.660;2024-01-30T01:44:03;4.50;99.90
52495;DHT22;38405;53.212;5.660;2024-01-30T01:46:32;4.80;99.90
52495;DHT22;38405;53.212;5.660;2024-01-30T01:48:58;4.90;99.90
52495;DHT22;38405;53.212;5.660;2024-01-30T01:51:27;4.80;99.90
52495;DHT22;38405;53.212;5.660;2024-01-30T01:53:54;4.80;99.90
52495;DHT22;38405;53.212;5.660;2024-01-30T01:56:22;5.10;99.90
52495;DHT22;38405;53.212;5.660;2024-01-30T01:58:49;5.20;99.90
52495;DHT22;38405;53.212;5.660;2024-01-30T02:01:18;4.90;99.90
52495;DHT22;38405;53.212;5.660;2024-01-30T02:03:45;5.30;99.90
52495;DHT22;38405;53.212;5.660;2024-01-30T02:06:15;5.00;99.90
52495;DHT22;38405;53.212;5.660;2024-01-30T02:08:41;5.10;99.90
52495;DHT22;38405;53.212;5.660;2024-01-30T02:11:07;5.30;99.90
52495;DHT22;38405;53.212;5.660;2024-01-30T02:13:33;5.10;99.90
52495;DHT22;38405;53.212;5.660;2024-01-30T02:16:00;5.10;99.90
52495;DHT22;38405;53.212;5.660;2024-01-30T02:18:26;5.40;99.90
52495;DHT22;38405;53.212;5.660;2024-01-30T02:20:54;5.30;99.90
52495;DHT22;38405;53.212;5.660;2024-01-30T02:23:23;5.10;99.90
52495;DHT22;38405;53.212;5.660;2024-01-30T02:25:50;5.20;99.90
52495;DHT22;38405;53.212;5.660;2024-01-30T02:28:19;5.00;99.90
52495;DHT22;38405;53.212;5.660;2024-01-30T02:30:45;5.30;99.90
52495;DHT22;38405;53.212;5.660;2024-01-30T02:33:11;5.20;99.90
52495;DHT22;38405;53.212;5.660;2024-01-30T02:35:36;5.80;99.90
52495;DHT22;38405;53.212;5.660;2024-01-30T02:38:02;5.20;99.90
52495;DHT22;38405;53.212;5.660;2024-01-30T02:40:28;5.20;99.90
52495;DHT22;38405;53.212;5.660;2024-01-30T02:42:53;5.50;99.90
52495;DHT22;38405;53.212;5.660;2024-01-30T02:45:19;5.20;99.90
52495;DHT22;38405;53.212;5.660;2024-01-30T02:47:45;5.60;99.90
52495;DHT22;38405;53.212;5.660;2024-01-30T02:50:11;5.30;99.90
52495;DHT22;38405;53.212;5.660;2024-01-30T02:52:36;5.30;99.90
52495;DHT22;38405;53.212;5.660;2024-01-30T02:55:02;5.40;99.90
52495;DHT22;38405;53.212;5.660;2024-01-30T02:57:29;5.20;99.90
52495;DHT22;38405;53.212;5.660;2024-01-30T02:59:54;5.20;99.90
52495;DHT22;38405;53.212;5.660;2024-01-30T03:02:20;5.20;99.90
52495;DHT22;38405;53.212;5.660;2024-01-30T03:04:46;5.20;99.90
52495;DHT22;38405;53.212;5.660;2024-01-30T03:07:12;5.30;99.90
52495;DHT22;38405;53.212;5.660;2024-01-30T03:09:38;5.20;99.90
52495;DHT22;38405;53.212;5.660;2024-01-30T03:12:04;4.90;99.90
52495;DHT22;38405;53.212;5.660;2024-01-30T03:14:33;4.90;99.90
52495;DHT22;38405;53.212;5.660;2024-01-30T03:16:58;5.00;99.90
52495;DHT22;38405;53.212;5.660;2024-01-30T03:19:24;4.90;99.90
52495;DHT22;38405;53.212;5.660;2024-01-30T03:21:50;5.20;99.90
52495;DHT22;38405;53.212;5.660;2024-01-30T03:24:16;5.00;99.90
52495;DHT22;38405;53.212;5.660;2024-01-30T03:26:43;5.10;99.90
52495;DHT22;38405;53.212;5.660;2024-01-30T03:29:08;5.00;99.90
52495;DHT22;38405;53.212;5.660;2024-01-30T03:31:34;5.00;99.90
52495;DHT22;38405;53.212;5.660;2024-01-30T03:34:01;5.00;99.90
52495;DHT22;38405;53.212;5.660;2024-01-30T03:36:26;5.00;99.90
52495;DHT22;38405;53.212;5.660;2024-01-30T03:38:52;5.40;99.90
52495;DHT22;38405;53.212;5.660;2024-01-30T03:41:17;5.30;99.90
52495;DHT22;38405;53.212;5.660;2024-01-30T03:43:43;5.40;99.90
52495;DHT22;38405;53.212;5.660;2024-01-30T03:46:09;5.40;99.90
52495;DHT22;38405;53.212;5.660;2024-01-30T03:48:34;5.40;99.90
52495;DHT22;38405;53.212;5.660;2024-01-30T03:51:00;5.40;99.90
52495;DHT22;38405;53.212;5.660;2024-01-30T03:53:26;5.40;99.90
52495;DHT22;38405;53.212;5.660;2024-01-30T03:55:51;5.40;99.90
52495;DHT22;38405;53.212;5.660;2024-01-30T03:58:17;5.30;99.90
52495;DHT22;38405;53.212;5.660;2024-01-30T04:00:42;5.50;99.90
52495;DHT22;38405;53.212;5.660;2024-01-30T04:03:08;5.60;99.90
52495;DHT22;38405;53.212;5.660;2024-01-30T04:05:34;5.50;99.90
52495;DHT22;38405;53.212;5.660;2024-01-30T04:07:59;5.40;99.90
52495;DHT22;38405;53.212;5.660;2024-01-30T04:10:25;5.40;99.90
52495;DHT22;38405;53.212;5.660;2024-01-30T04:12:51;5.40;99.90
52495;DHT22;38405;53.212;5.660;2024-01-30T04:15:17;5.60;99.90
52495;DHT22;38405;53.212;5.660;2024-01-30T04:17:44;5.80;99.90
52495;DHT22;38405;53.212;5.660;2024-01-30T04:20:15;5.60;99.90
52495;DHT22;38405;53.212;5.660;2024-01-30T04:22:44;5.60;99.90
52495;DHT22;38405;53.212;5.660;2024-01-30T04:25:10;5.70;99.90
52495;DHT22;38405;53.212;5.660;2024-01-30T04:27:35;5.80;99.90
52495;DHT22;38405;53.212;5.660;2024-01-30T04:30:01;5.60;99.90
52495;DHT22;38405;53.212;5.660;2024-01-30T04:32:27;5.70;99.90
52495;DHT22;38405;53.212;5.660;2024-01-30T04:34:52;5.80;99.90
52495;DHT22;38405;53.212;5.660;2024-01-30T04:37:18;5.80;99.90
52495;DHT22;38405;53.212;5.660;2024-01-30T04:39:43;5.60;99.90
52495;DHT22;38405;53.212;5.660;2024-01-30T04:42:09;5.80;99.90
52495;DHT22;38405;53.212;5.660;2024-01-30T04:44:35;5.80;99.90
52495;DHT22;38405;53.212;5.660;2024-01-30T04:47:00;5.80;99.90
52495;DHT22;38405;53.212;5.660;2024-01-30T04:49:27;5.50;99.90
52495;DHT22;38405;53.212;5.660;2024-01-30T04:51:54;5.60;99.90
52495;DHT22;38405;53.212;5.660;2024-01-30T04:54:20;6.10;99.90
52495;DHT22;38405;53.212;5.660;2024-01-30T04:56:45;5.90;99.90
52495;DHT22;38405;53.212;5.660;2024-01-30T04:59:12;5.80;99.90
52495;DHT22;38405;53.212;5.660;2024-01-30T05:01:37;6.20;99.90
52495;DHT22;38405;53.212;5.660;2024-01-30T05:04:03;6.10;99.90
52495;DHT22;38405;53.212;5.660;2024-01-30T05:06:29;5.90;99.90
52495;DHT22;38405;53.212;5.660;2024-01-30T05:08:55;6.00;99.90
52495;DHT22;38405;53.212;5.660;2024-01-30T05:11:21;6.40;99.90
52495;DHT22;38405;53.212;5.660;2024-01-30T05:13:46;6.40;99.90
52495;DHT22;38405;53.212;5.660;2024-01-30T05:16:13;6.50;99.90
52495;DHT22;38405;53.212;5.660;2024-01-30T05:18:38;6.30;99.90
52495;DHT22;38405;53.212;5.660;2024-01-30T05:21:05;6.20;99.90
52495;DHT22;38405;53.212;5.660;2024-01-30T05:23:30;6.10;99.90
52495;DHT22;38405;53.212;5.660;2024-01-30T05:25:56;6.40;99.90
52495;DHT22;38405;53.212;5.660;2024-01-30T05:28:22;6.50;99.90
52495;DHT22;38405;53.212;5.660;2024-01-30T05:30:48;6.60;99.90
52495;DHT22;38405;53.212;5.660;2024-01-30T05:33:13;6.30;99.90
52495;DHT22;38405;53.212;5.660;2024-01-30T05:35:39;6.50;99.90
52495;DHT22;38405;53.212;5.660;2024-01-30T05:38:05;6.60;99.90
52495;DHT22;38405;53.212;5.660;2024-01-30T05:40:30;6.70;99.90
52495;DHT22;38405;53.212;5.660;2024-01-30T05:42:56;6.50;99.90
52495;DHT22;38405;53.212;5.660;2024-01-30T05:45:26;6.70;99.90
52495;DHT22;38405;53.212;5.660;2024-01-30T05:47:52;6.50;99.90
52495;DHT22;38405;53.212;5.660;2024-01-30T05:50:18;6.50;99.90
52495;DHT22;38405;53.212;5.660;2024-01-30T05:52:44;6.60;99.90
52495;DHT22;38405;53.212;5.660;2024-01-30T05:55:11;7.10;99.90
52495;DHT22;38405;53.212;5.660;2024-01-30T05:57:37;6.90;99.90
52495;DHT22;38405;53.212;5.660;2024-01-30T06:00:04;6.80;99.90
52495;DHT22;38405;53.212;5.660;2024-01-30T06:02:30;7.00;99.90
52495;DHT22;38405;53.212;5.660;2024-01-30T06:04:56;7.30;99.90
52495;DHT22;38405;53.212;5.660;2024-01-30T06:07:22;7.30;99.90
52495;DHT22;38405;53.212;5.660;2024-01-30T06:09:47;7.00;99.90
52495;DHT22;38405;53.212;5.660;2024-01-30T06:12:13;7.20;99.90
52495;DHT22;38405;53.212;5.660;2024-01-30T06:14:39;7.40;99.90
52495;DHT22;38405;53.212;5.660;2024-01-30T06:17:05;7.20;99.90
52495;DHT22;38405;53.212;5.660;2024-01-30T06:19:30;7.20;99.90
52495;DHT22;38405;53.212;5.660;2024-01-30T06:21:57;7.30;99.90
52495;DHT22;38405;53.212;5.660;2024-01-30T06:24:23;7.20;99.90
52495;DHT22;38405;53.212;5.660;2024-01-30T06:26:48;7.40;99.90
52495;DHT22;38405;53.212;5.660;2024-01-30T06:29:14;7.40;99.90
52495;DHT22;38405;53.212;5.660;2024-01-30T06:31:43;7.30;99.90
52495;DHT22;38405;53.212;5.660;2024-01-30T06:34:09;7.50;99.90
52495;DHT22;38405;53.212;5.660;2024-01-30T06:36:36;7.50;99.90
52495;DHT22;38405;53.212;5.660;2024-01-30T06:39:02;7.40;99.90
52495;DHT22;38405;53.212;5.660;2024-01-30T06:41:28;7.60;99.90
52495;DHT22;38405;53.212;5.660;2024-01-30T06:43:54;7.90;99.90
52495;DHT22;38405;53.212;5.660;2024-01-30T06:46:19;8.10;99.90
52495;DHT22;38405;53.212;5.660;2024-01-30T06:48:45;7.50;99.90
52495;DHT22;38405;53.212;5.660;2024-01-30T06:51:11;7.80;99.90
52495;DHT22;38405;53.212;5.660;2024-01-30T06:53:37;7.50;99.90
52495;DHT22;38405;53.212;5.660;2024-01-30T06:56:03;7.70;99.90
52495;DHT22;38405;53.212;5.660;2024-01-30T06:58:29;7.70;99.90
52495;DHT22;38405;53.212;5.660;2024-01-30T07:00:55;7.90;99.90
52495;DHT22;38405;53.212;5.660;2024-01-30T07:03:21;7.70;99.90
52495;DHT22;38405;53.212;5.660;2024-01-30T07:05:47;7.80;99.90
52495;DHT22;38405;53.212;5.660;2024-01-30T07:08:12;7.70;99.90
52495;DHT22;38405;53.212;5.660;2024-01-30T07:10:38;7.90;99.90
52495;DHT22;38405;53.212;5.660;2024-01-30T07:13:05;7.70;99.90
52495;DHT22;38405;53.212;5.660;2024-01-30T07:15:31;7.90;99.90
52495;DHT22;38405;53.212;5.660;2024-01-30T07:17:57;8.00;99.90
52495;DHT22;38405;53.212;5.660;2024-01-30T07:20:22;7.90;99.90
52495;DHT22;38405;53.212;5.660;2024-01-30T07:22:49;7.90;99.90
52495;DHT22;38405;53.212;5.660;2024-01-30T07:25:15;8.10;99.90
52495;DHT22;38405;53.212;5.660;2024-01-30T07:27:42;8.10;99.90
52495;DHT22;38405;53.212;5.660;2024-01-30T07:30:08;8.10;99.90
52495;DHT22;38405;53.212;5.660;2024-01-30T07:32:33;8.30;99.90
52495;DHT22;38405;53.212;5.660;2024-01-30T07:34:59;8.30;99.90
52495;DHT22;38405;53.212;5.660;2024-01-30T07:37:25;8.10;99.90
52495;DHT22;38405;53.212;5.660;2024-01-30T07:39:50;8.20;99.90
52495;DHT22;38405;53.212;5.660;2024-01-30T07:42:16;8.10;99.90
52495;DHT22;38405;53.212;5.660;2024-01-30T07:44:43;8.10;99.90
52495;DHT22;38405;53.212;5.660;2024-01-30T07:47:08;8.00;99.90
52495;DHT22;38405;53.212;5.660;2024-01-30T07:49:34;8.10;99.90
52495;DHT22;38405;53.212;5.660;2024-01-30T07:52:00;8.20;99.90
52495;DHT22;38405;53.212;5.660;2024-01-30T07:54:32;8.20;99.90
52495;DHT22;38405;53.212;5.660;2024-01-30T07:57:00;8.10;99.90
52495;DHT22;38405;53.212;5.660;2024-01-30T07:59:25;8.30;99.90
52495;DHT22;38405;53.212;5.660;2024-01-30T08:02:03;8.20;99.90
52495;DHT22;38405;53.212;5.660;2024-01-30T08:04:29;8.20;99.90
52495;DHT22;38405;53.212;5.660;2024-01-30T08:06:55;8.20;99.90
52495;DHT22;38405;53.212;5.660;2024-01-30T08:09:20;8.20;99.90
52495;DHT22;38405;53.212;5.660;2024-01-30T08:11:46;8.30;99.90
52495;DHT22;38405;53.212;5.660;2024-01-30T08:14:11;8.40;99.90
52495;DHT22;38405;53.212;5.660;2024-01-30T08:16:39;8.40;99.90
52495;DHT22;38405;53.212;5.660;2024-01-30T08:19:04;8.50;99.90
52495;DHT22;38405;53.212;5.660;2024-01-30T08:21:30;8.30;99.90
52495;DHT22;38405;53.212;5.660;2024-01-30T08:24:04;8.40;99.90
52495;DHT22;38405;53.212;5.660;2024-01-30T08:26:31;8.50;99.90
52495;DHT22;38405;53.212;5.660;2024-01-30T08:28:56;8.60;99.90
52495;DHT22;38405;53.212;5.660;2024-01-30T08:31:22;8.50;99.90
52495;DHT22;38405;53.212;5.660;2024-01-30T08:33:48;8.40;99.90
52495;DHT22;38405;53.212;5.660;2024-01-30T08:36:15;8.50;99.90
52495;DHT22;38405;53.212;5.660;2024-01-30T08:38:40;8.60;99.90
52495;DHT22;38405;53.212;5.660;2024-01-30T08:41:07;8.50;99.90
52495;DHT22;38405;53.212;5.660;2024-01-30T08:43:33;8.70;99.90
52495;DHT22;38405;53.212;5.660;2024-01-30T08:46:00;8.50;99.90
52495;DHT22;38405;53.212;5.660;2024-01-30T08:48:26;8.80;99.90
52495;DHT22;38405;53.212;5.660;2024-01-30T08:50:52;8.60;99.90
52495;DHT22;38405;53.212;5.660;2024-01-30T08:53:17;8.80;99.90
52495;DHT22;38405;53.212;5.660;2024-01-30T08:55:44;8.80;99.90
52495;DHT22;38405;53.212;5.660;2024-01-30T08:58:09;8.90;99.90
52495;DHT22;38405;53.212;5.660;2024-01-30T09:00:35;9.00;99.90
52495;DHT22;38405;53.212;5.660;2024-01-30T09:03:01;9.00;99.90
52495;DHT22;38405;53.212;5.660;2024-01-30T09:05:26;8.90;99.90
52495;DHT22;38405;53.212;5.660;2024-01-30T09:07:52;9.00;99.90
52495;DHT22;38405;53.212;5.660;2024-01-30T09:10:18;9.10;99.90
52495;DHT22;38405;53.212;5.660;2024-01-30T09:12:44;9.10;99.90
52495;DHT22;38405;53.212;5.660;2024-01-30T09:15:10;9.20;99.90
52495;DHT22;38405;53.212;5.660;2024-01-30T09:17:35;9.20;99.90
52495;DHT22;38405;53.212;5.660;2024-01-30T09:20:01;9.30;99.90
52495;DHT22;38405;53.212;5.660;2024-01-30T09:22:26;9.30;99.90
52495;DHT22;38405;53.212;5.660;2024-01-30T09:24:52;9.20;99.90
52495;DHT22;38405;53.212;5.660;2024-01-30T09:27:18;9.30;99.90
52495;DHT22;38405;53.212;5.660;2024-01-30T09:29:43;9.40;99.90
52495;DHT22;38405;53.212;5.660;2024-01-30T09:32:09;9.40;99.90
52495;DHT22;38405;53.212;5.660;2024-01-30T09:34:35;9.20;99.90
52495;DHT22;38405;53.212;5.660;2024-01-30T09:37:00;9.40;99.90
52495;DHT22;38405;53.212;5.660;2024-01-30T09:39:26;9.60;99.90
52495;DHT22;38405;53.212;5.660;2024-01-30T09:42:11;9.40;99.90
52495;DHT22;38405;53.212;5.660;2024-01-30T09:44:43;9.50;99.90
52495;DHT22;38405;53.212;5.660;2024-01-30T09:47:09;9.50;99.90
52495;DHT22;38405;53.212;5.660;2024-01-30T09:49:35;9.60;99.90
52495;DHT22;38405;53.212;5.660;2024-01-30T09:52:02;9.60;99.90
52495;DHT22;38405;53.212;5.660;2024-01-30T09:54:32;9.50;99.90
52495;DHT22;38405;53.212;5.660;2024-01-30T09:56:58;9.60;99.90
52495;DHT22;38405;53.212;5.660;2024-01-30T09:59:24;9.60;99.90
52495;DHT22;38405;53.212;5.660;2024-01-30T10:01:50;9.60;99.90
52495;DHT22;38405;53.212;5.660;2024-01-30T10:04:17;9.40;99.90
52495;DHT22;38405;53.212;5.660;2024-01-30T10:06:43;9.50;99.90
52495;DHT22;38405;53.212;5.660;2024-01-30T10:09:08;9.50;99.90
52495;DHT22;38405;53.212;5.660;2024-01-30T10:11:35;9.30;99.90
52495;DHT22;38405;53.212;5.660;2024-01-30T10:14:01;9.30;99.90
52495;DHT22;38405;53.212;5.660;2024-01-30T10:16:27;9.10;99.90
52495;DHT22;38405;53.212;5.660;2024-01-30T10:18:53;9.30;99.90
52495;DHT22;38405;53.212;5.660;2024-01-30T10:21:19;9.20;99.90
52495;DHT22;38405;53.212;5.660;2024-01-30T10:23:44;9.30;99.90
52495;DHT22;38405;53.212;5.660;2024-01-30T10:26:10;9.30;99.90
52495;DHT22;38405;53.212;5.660;2024-01-30T10:28:38;9.10;99.90
52495;DHT22;38405;53.212;5.660;2024-01-30T10:31:04;9.10;99.90
52495;DHT22;38405;53.212;5.660;2024-01-30T10:33:30;9.30;99.90
52495;DHT22;38405;53.212;5.660;2024-01-30T10:36:01;9.20;99.90
52495;DHT22;38405;53.212;5.660;2024-01-30T10:38:31;9.30;99.90
52495;DHT22;38405;53.212;5.660;2024-01-30T10:40:58;9.30;99.90
52495;DHT22;38405;53.212;5.660;2024-01-30T10:43:32;9.20;99.90
52495;DHT22;38405;53.212;5.660;2024-01-30T10:46:07;9.20;99.90
52495;DHT22;38405;53.212;5.660;2024-01-30T10:48:36;9.00;99.90
52495;DHT22;38405;53.212;5.660;2024-01-30T10:51:10;9.10;99.90
52495;DHT22;38405;53.212;5.660;2024-01-30T10:53:36;9.20;99.90
52495;DHT22;38405;53.212;5.660;2024-01-30T10:56:03;9.20;99.90
52495;DHT22;38405;53.212;5.660;2024-01-30T10:58:29;9.10;99.90
52495;DHT22;38405;53.212;5.660;2024-01-30T11:00:56;9.00;99.90
52495;DHT22;38405;53.212;5.660;2024-01-30T11:03:22;9.00;99.90
52495;DHT22;38405;53.212;5.660;2024-01-30T11:05:52;9.00;99.90
52495;DHT22;38405;53.212;5.660;2024-01-30T11:08:24;9.10;99.90
52495;DHT22;38405;53.212;5.660;2024-01-30T11:10:57;9.10;99.90
52495;DHT22;38405;53.212;5.660;2024-01-30T11:13:29;9.10;99.90
52495;DHT22;38405;53.212;5.660;2024-01-30T11:15:55;9.00;99.90
52495;DHT22;38405;53.212;5.660;2024-01-30T11:18:25;9.10;99.90
52495;DHT22;38405;53.212;5.660;2024-01-30T11:20:51;9.00;99.90
52495;DHT22;38405;53.212;5.660;2024-01-30T11:23:17;9.10;99.90
52495;DHT22;38405;53.212;5.660;2024-01-30T11:25:43;8.90;99.90
52495;DHT22;38405;53.212;5.660;2024-01-30T11:28:16;8.90;99.90
52495;DHT22;38405;53.212;5.660;2024-01-30T11:30:42;9.00;99.90
52495;DHT22;38405;53.212;5.660;2024-01-30T11:33:11;9.10;99.90
52495;DHT22;38405;53.212;5.660;2024-01-30T11:35:42;8.90;99.90
52495;DHT22;38405;53.212;5.660;2024-01-30T11:38:09;8.80;99.90
52495;DHT22;38405;53.212;5.660;2024-01-30T11:40:36;8.70;99.90
52495;DHT22;38405;53.212;5.660;2024-01-30T11:43:04;8.60;99.90
52495;DHT22;38405;53.212;5.660;2024-01-30T11:45:31;8.80;99.90
52495;DHT22;38405;53.212;5.660;2024-01-30T11:47:58;8.70;99.90
52495;DHT22;38405;53.212;5.660;2024-01-30T11:50:25;8.80;99.90
52495;DHT22;38405;53.212;5.660;2024-01-30T11:52:51;8.70;99.90
52495;DHT22;38405;53.212;5.660;2024-01-30T11:55:17;8.80;99.90
52495;DHT22;38405;53.212;5.660;2024-01-30T11:57:44;8.70;99.90
52495;DHT22;38405;53.212;5.660;2024-01-30T12:00:17;8.80;99.90
52495;DHT22;38405;53.212;5.660;2024-01-30T12:02:44;8.70;99.90
52495;DHT22;38405;53.212;5.660;2024-01-30T12:05:10;8.80;99.90
52495;DHT22;38405;53.212;5.660;2024-01-30T12:07:36;8.90;99.90
52495;DHT22;38405;53.212;5.660;2024-01-30T12:10:02;8.80;99.90
52495;DHT22;38405;53.212;5.660;2024-01-30T12:12:29;8.90;99.90
52495;DHT22;38405;53.212;5.660;2024-01-30T12:14:56;9.00;99.90
52495;DHT22;38405;53.212;5.660;2024-01-30T12:17:33;8.70;99.90
52495;DHT22;38405;53.212;5.660;2024-01-30T12:22:36;9.00;99.90
52495;DHT22;38405;53.212;5.660;2024-01-30T12:25:24;8.70;99.90
52495;DHT22;38405;53.212;5.660;2024-01-30T12:27:50;8.80;99.90
52495;DHT22;38405;53.212;5.660;2024-01-30T12:30:17;8.90;99.90
52495;DHT22;38405;53.212;5.660;2024-01-30T12:32:44;8.70;99.90
52495;DHT22;38405;53.212;5.660;2024-01-30T12:35:11;8.80;99.90
52495;DHT22;38405;53.212;5.660;2024-01-30T12:37:37;9.00;99.90
52495;DHT22;38405;53.212;5.660;2024-01-30T12:40:03;9.00;99.90
52495;DHT22;38405;53.212;5.660;2024-01-30T12:42:29;9.00;99.90
52495;DHT22;38405;53.212;5.660;2024-01-30T12:44:57;8.70;99.90
52495;DHT22;38405;53.212;5.660;2024-01-30T12:47:23;8.90;99.90
52495;DHT22;38405;53.212;5.660;2024-01-30T12:49:48;8.70;99.90
52495;DHT22;38405;53.212;5.660;2024-01-30T12:52:17;8.70;99.90
52495;DHT22;38405;53.212;5.660;2024-01-30T12:54:42;8.70;99.90
52495;DHT22;38405;53.212;5.660;2024-01-30T12:57:08;8.80;99.90
52495;DHT22;38405;53.212;5.660;2024-01-30T12:59:34;8.60;99.90
52495;DHT22;38405;53.212;5.660;2024-01-30T13:02:00;8.60;99.90
52495;DHT22;38405;53.212;5.660;2024-01-30T13:04:27;8.80;99.90
52495;DHT22;38405;53.212;5.660;2024-01-30T13:06:53;8.80;99.90
52495;DHT22;38405;53.212;5.660;2024-01-30T13:09:19;8.50;99.90
52495;DHT22;38405;53.212;5.660;2024-01-30T13:11:45;8.60;99.90
52495;DHT22;38405;53.212;5.660;2024-01-30T13:14:10;8.70;99.90
52495;DHT22;38405;53.212;5.660;2024-01-30T13:16:36;8.80;99.90
52495;DHT22;38405;53.212;5.660;2024-01-30T13:19:02;8.60;99.90
52495;DHT22;38405;53.212;5.660;2024-01-30T13:21:28;8.60;99.90
52495;DHT22;38405;53.212;5.660;2024-01-30T13:23:54;8.80;99.90
52495;DHT22;38405;53.212;5.660;2024-01-30T13:26:20;8.70;99.90
52495;DHT22;38405;53.212;5.660;2024-01-30T13:28:46;8.70;99.90
52495;DHT22;38405;53.212;5.660;2024-01-30T13:31:13;8.50;99.90
52495;DHT22;38405;53.212;5.660;2024-01-30T13:33:40;8.90;99.90
52495;DHT22;38405;53.212;5.660;2024-01-30T13:36:07;8.50;99.90
52495;DHT22;38405;53.212;5.660;2024-01-30T13:38:33;8.50;99.90
52495;DHT22;38405;53.212;5.660;2024-01-30T13:40:59;8.80;99.90
52495;DHT22;38405;53.212;5.660;2024-01-30T13:43:25;8.70;99.90
52495;DHT22;38405;53.212;5.660;2024-01-30T13:45:51;8.50;99.90
52495;DHT22;38405;53.212;5.660;2024-01-30T13:48:17;8.60;99.90
52495;DHT22;38405;53.212;5.660;2024-01-30T13:50:42;8.70;99.90
52495;DHT22;38405;53.212;5.660;2024-01-30T13:53:08;8.50;99.90
52495;DHT22;38405;53.212;5.660;2024-01-30T13:55:34;8.70;99.90
52495;DHT22;38405;53.212;5.660;2024-01-30T13:58:00;8.70;99.90
52495;DHT22;38405;53.212;5.660;2024-01-30T14:00:27;8.60;99.90
52495;DHT22;38405;53.212;5.660;2024-01-30T14:02:52;8.70;99.90
52495;DHT22;38405;53.212;5.660;2024-01-30T14:05:20;8.60;99.90
52495;DHT22;38405;53.212;5.660;2024-01-30T14:07:47;8.60;99.90
52495;DHT22;38405;53.212;5.660;2024-01-30T14:10:12;8.40;99.90
52495;DHT22;38405;53.212;5.660;2024-01-30T14:12:38;8.50;99.90
52495;DHT22;38405;53.212;5.660;2024-01-30T14:15:04;8.60;99.90
52495;DHT22;38405;53.212;5.660;2024-01-30T14:17:30;8.30;99.90
52495;DHT22;38405;53.212;5.660;2024-01-30T14:19:56;8.60;99.90
52495;DHT22;38405;53.212;5.660;2024-01-30T14:22:22;8.40;99.90
52495;DHT22;38405;53.212;5.660;2024-01-30T14:24:47;8.50;99.90
52495;DHT22;38405;53.212;5.660;2024-01-30T14:27:13;8.70;99.90
52495;DHT22;38405;53.212;5.660;2024-01-30T14:29:39;8.30;99.90
52495;DHT22;38405;53.212;5.660;2024-01-30T14:32:05;8.30;99.90
52495;DHT22;38405;53.212;5.660;2024-01-30T14:34:30;8.50;99.90
52495;DHT22;38405;53.212;5.660;2024-01-30T14:36:56;8.50;99.90
52495;DHT22;38405;53.212;5.660;2024-01-30T14:39:22;8.40;99.90
52495;DHT22;38405;53.212;5.660;2024-01-30T14:41:47;8.30;99.90
52495;DHT22;38405;53.212;5.660;2024-01-30T14:44:13;8.60;99.90
52495;DHT22;38405;53.212;5.660;2024-01-30T14:46:40;8.40;99.90
52495;DHT22;38405;53.212;5.660;2024-01-30T14:49:05;8.10;99.90
52495;DHT22;38405;53.212;5.660;2024-01-30T14:51:33;8.50;99.90
52495;DHT22;38405;53.212;5.660;2024-01-30T14:53:59;8.10;99.90
52495;DHT22;38405;53.212;5.660;2024-01-30T14:56:25;8.40;99.90
52495;DHT22;38405;53.212;5.660;2024-01-30T14:58:51;8.00;99.90
52495;DHT22;38405;53.212;5.660;2024-01-30T15:01:16;8.30;99.90
52495;DHT22;38405;53.212;5.660;2024-01-30T15:03:43;7.90;99.90
52495;DHT22;38405;53.212;5.660;2024-01-30T15:06:09;8.10;99.90
52495;DHT22;38405;53.212;5.660;2024-01-30T15:08:35;7.90;99.90
52495;DHT22;38405;53.212;5.660;2024-01-30T15:11:00;7.90;99.90
52495;DHT22;38405;53.212;5.660;2024-01-30T15:13:29;7.70;99.90
52495;DHT22;38405;53.212;5.660;2024-01-30T15:15:55;7.90;99.90
52495;DHT22;38405;53.212;5.660;2024-01-30T15:18:21;8.00;99.90
52495;DHT22;38405;53.212;5.660;2024-01-30T15:20:46;7.60;99.90
52495;DHT22;38405;53.212;5.660;2024-01-30T15:23:12;7.50;99.90
52495;DHT22;38405;53.212;5.660;2024-01-30T15:25:38;7.50;99.90
52495;DHT22;38405;53.212;5.660;2024-01-30T15:28:03;7.50;99.90
52495;DHT22;38405;53.212;5.660;2024-01-30T15:30:29;7.50;99.90
52495;DHT22;38405;53.212;5.660;2024-01-30T15:32:55;7.80;99.90
52495;DHT22;38405;53.212;5.660;2024-01-30T15:35:20;7.40;99.90
52495;DHT22;38405;53.212;5.660;2024-01-30T15:37:47;7.70;99.90
52495;DHT22;38405;53.212;5.660;2024-01-30T15:40:12;7.60;99.90
52495;DHT22;38405;53.212;5.660;2024-01-30T15:42:38;7.60;99.90